createdAt,value
2023-03-05T00:05:40.192Z,1.52
2023-03-05T00:08:25.967Z,1.41
2023-03-05T00:11:11.914Z,1.35
2023-03-05T00:14:18.090Z,1.34
2023-03-05T00:17:04.090Z,1.30
2023-03-05T00:19:49.936Z,1.15
2023-03-05T00:22:35.947Z,1.20
2023-03-05T00:25:21.925Z,1.03
2023-03-05T00:28:07.758Z,0.91
2023-03-05T00:30:53.893Z,0.77
2023-03-05T00:33:39.709Z,0.86
2023-03-05T00:36:25.732Z,0.78
2023-03-05T00:39:11.836Z,0.80
2023-03-05T00:41:59.503Z,0.57
2023-03-05T00:44:45.462Z,0.47
2023-03-05T00:47:31.466Z,0.40
2023-03-05T00:50:17.338Z,0.20
2023-03-05T00:53:03.238Z,0.07
2023-03-05T00:55:49.129Z,0.02
2023-03-05T00:58:34.994Z,0.06
2023-03-05T01:01:20.975Z,-0.02
2023-03-05T01:04:06.805Z,0.03
2023-03-05T01:06:52.806Z,0.11
2023-03-05T01:09:38.596Z,0.08
2023-03-05T01:12:24.407Z,0.30
2023-03-05T01:15:10.373Z,0.25
2023-03-05T01:17:56.320Z,0.19
2023-03-05T01:20:42.149Z,0.21
2023-03-05T01:23:28.197Z,0.19
2023-03-05T01:26:14.033Z,0.22
2023-03-05T01:29:00.122Z,0.13
2023-03-05T01:31:46.088Z,-0.13
2023-03-05T01:34:32.022Z,-0.22
2023-03-05T01:37:17.896Z,-0.54
2023-03-05T01:40:03.683Z,-0.54
2023-03-05T01:42:49.490Z,-0.47
2023-03-05T01:45:35.489Z,-0.48
2023-03-05T01:48:21.735Z,-0.37
2023-03-05T01:51:07.543Z,-0.39
2023-03-05T01:53:53.549Z,-0.05
2023-03-05T01:56:39.432Z,0.03
2023-03-05T01:59:25.270Z,-0.13
2023-03-05T02:02:11.142Z,-0.38
2023-03-05T02:04:57.094Z,-0.75
2023-03-05T02:07:43.111Z,-0.87
2023-03-05T02:10:28.936Z,-0.93
2023-03-05T02:13:14.811Z,-1.09
2023-03-05T02:16:00.764Z,-1.08
2023-03-05T02:18:46.578Z,-1.20
2023-03-05T02:21:32.532Z,-1.21
2023-03-05T02:24:18.359Z,-1.25
2023-03-05T02:27:04.275Z,-1.32
2023-03-05T02:29:50.161Z,-1.37
2023-03-05T02:32:36.181Z,-1.11
2023-03-05T02:35:22.482Z,-0.91
2023-03-05T02:38:08.264Z,-0.97
2023-03-05T02:40:54.098Z,-1.44
2023-03-05T02:43:39.994Z,-1.31
2023-03-05T02:46:25.801Z,-1.57
2023-03-05T02:49:11.739Z,-1.67
2023-03-05T02:51:57.738Z,-1.71
2023-03-05T02:54:43.499Z,-1.70
2023-03-05T02:57:29.290Z,-1.53
2023-03-05T03:00:15.057Z,-1.47
2023-03-05T03:03:01.078Z,-1.42
2023-03-05T03:05:47.072Z,-1.57
2023-03-05T03:08:33.000Z,-1.73
2023-03-05T03:11:18.808Z,-1.72
2023-03-05T03:14:04.712Z,-1.69
2023-03-05T03:16:50.705Z,-1.98
2023-03-05T03:19:36.578Z,-2.06
2023-03-05T03:22:22.484Z,-2.19
2023-03-05T03:25:08.438Z,-2.16
2023-03-05T03:27:54.259Z,-2.16
2023-03-05T03:30:40.114Z,-2.18
2023-03-05T03:33:26.058Z,-2.13
2023-03-05T03:36:13.840Z,-2.17
2023-03-05T03:38:59.840Z,-2.25
2023-03-05T03:41:45.809Z,-2.26
2023-03-05T03:44:31.655Z,-2.32
2023-03-05T03:47:17.610Z,-2.37
2023-03-05T03:50:03.562Z,-2.39
2023-03-05T03:52:49.373Z,-2.43
2023-03-05T03:55:35.217Z,-2.47
2023-03-05T03:58:21.055Z,-2.56
2023-03-05T04:01:06.878Z,-2.62
2023-03-05T04:03:52.894Z,-2.63
2023-03-05T04:06:38.747Z,-2.67
2023-03-05T04:09:24.634Z,-2.76
2023-03-05T04:12:10.371Z,-2.78
2023-03-05T04:14:56.309Z,-2.71
2023-03-05T04:17:42.266Z,-2.70
2023-03-05T04:20:28.116Z,-2.71
2023-03-05T04:23:14.093Z,-2.73
2023-03-05T04:26:00.006Z,-2.74
2023-03-05T04:28:45.930Z,-2.70
2023-03-05T04:31:31.968Z,-2.73
2023-03-05T04:34:18.006Z,-2.71
2023-03-05T04:37:03.896Z,-2.76
2023-03-05T04:39:49.899Z,-2.66
2023-03-05T04:42:35.636Z,-2.50
2023-03-05T04:45:21.512Z,-2.52
2023-03-05T04:48:07.477Z,-2.65
2023-03-05T04:50:53.327Z,-2.73
2023-03-05T04:53:39.171Z,-2.80
2023-03-05T04:56:24.994Z,-2.80
2023-03-05T04:59:10.839Z,-2.87
2023-03-05T05:01:56.727Z,-2.87
2023-03-05T05:04:43.071Z,-2.88
2023-03-05T05:07:29.041Z,-2.88
2023-03-05T05:10:14.982Z,-2.83
2023-03-05T05:13:00.781Z,-2.86
2023-03-05T05:15:46.574Z,-2.84
2023-03-05T05:18:32.318Z,-2.79
2023-03-05T05:21:18.317Z,-2.86
2023-03-05T05:24:04.278Z,-2.89
2023-03-05T05:26:50.116Z,-2.88
2023-03-05T05:29:35.956Z,-2.89
2023-03-05T05:32:21.799Z,-2.87
2023-03-05T05:35:07.644Z,-2.80
2023-03-05T05:37:53.548Z,-2.80
2023-03-05T05:40:39.499Z,-2.78
2023-03-05T05:43:25.564Z,-2.74
2023-03-05T05:46:11.497Z,-2.63
2023-03-05T05:48:57.651Z,-2.71
2023-03-05T05:51:46.126Z,-2.66
2023-03-05T05:54:32.044Z,-2.59
2023-03-05T05:57:17.903Z,-2.50
2023-03-05T06:00:03.807Z,-2.60
2023-03-05T06:02:49.697Z,-2.43
2023-03-05T06:05:35.596Z,-2.46
2023-03-05T06:08:21.591Z,-2.51
2023-03-05T06:11:07.393Z,-2.54
2023-03-05T06:13:53.293Z,-2.48
2023-03-05T06:16:39.354Z,-2.60
2023-03-05T06:19:25.494Z,-2.35
2023-03-05T06:22:11.516Z,-1.94
2023-03-05T06:24:57.452Z,-1.61
2023-03-05T06:27:43.216Z,-1.60
2023-03-05T06:30:29.271Z,-1.76
2023-03-05T06:33:15.109Z,-1.96
2023-03-05T06:36:01.241Z,-2.38
2023-03-05T06:38:48.929Z,-2.45
2023-03-05T06:41:34.967Z,-2.50
2023-03-05T06:44:20.973Z,-2.42
2023-03-05T06:47:06.847Z,-2.07
2023-03-05T06:49:52.774Z,-2.37
2023-03-05T06:52:38.901Z,-2.14
2023-03-05T06:55:24.850Z,-2.23
2023-03-05T06:58:10.844Z,-2.11
2023-03-05T07:00:56.796Z,-1.47
2023-03-05T07:03:42.790Z,-1.55
2023-03-05T07:06:28.939Z,-1.76
2023-03-05T07:09:14.801Z,-1.31
2023-03-05T07:12:00.718Z,-1.67
2023-03-05T07:14:46.557Z,-1.65
2023-03-05T07:17:32.347Z,-1.86
2023-03-05T07:20:18.166Z,-1.44
2023-03-05T07:23:04.122Z,-1.54
2023-03-05T07:25:49.924Z,-1.70
2023-03-05T07:28:35.879Z,-1.69
2023-03-05T07:31:21.635Z,-1.72
2023-03-05T07:34:07.588Z,-1.59
2023-03-05T07:36:53.695Z,-1.82
2023-03-05T07:39:39.504Z,-1.88
2023-03-05T07:42:25.628Z,-1.71
2023-03-05T07:45:11.560Z,-1.89
2023-03-05T07:47:57.479Z,-2.31
2023-03-05T07:50:43.378Z,-1.98
2023-03-05T07:53:29.701Z,-2.24
2023-03-05T07:56:15.644Z,-1.52
2023-03-05T07:59:01.621Z,-1.77
2023-03-05T08:01:47.479Z,-1.30
2023-03-05T08:04:33.463Z,-0.94
2023-03-05T08:07:19.495Z,-0.01
2023-03-05T08:10:07.410Z,0.06
2023-03-05T08:12:53.340Z,-0.50
2023-03-05T08:15:39.360Z,-0.84
2023-03-05T08:18:25.615Z,-1.06
2023-03-05T08:21:11.561Z,-1.25
2023-03-05T08:23:57.394Z,-1.40
2023-03-05T08:26:43.322Z,-1.27
2023-03-05T08:29:29.359Z,-1.39
2023-03-05T08:32:15.173Z,-1.30
2023-03-05T08:35:01.185Z,-0.69
2023-03-05T08:37:47.031Z,-0.09
2023-03-05T08:40:32.948Z,-0.26
2023-03-05T08:43:18.900Z,0.34
2023-03-05T08:46:04.762Z,0.08
2023-03-05T08:48:50.571Z,0.30
2023-03-05T08:51:36.579Z,0.64
2023-03-05T08:54:22.451Z,0.23
2023-03-05T08:57:08.433Z,-0.75
2023-03-05T08:59:54.293Z,-0.35
2023-03-05T09:02:40.274Z,0.20
2023-03-05T09:05:26.248Z,0.22
2023-03-05T09:08:12.077Z,-0.46
2023-03-05T09:10:58.059Z,0.43
2023-03-05T09:13:45.969Z,0.37
2023-03-05T09:16:31.934Z,-0.18
2023-03-05T09:19:17.926Z,-0.32
2023-03-05T09:22:03.924Z,-0.28
2023-03-05T09:24:49.889Z,-0.68
2023-03-05T09:27:35.964Z,-0.28
2023-03-05T09:30:21.957Z,-0.09
2023-03-05T09:33:07.811Z,0.39
2023-03-05T09:35:53.807Z,0.47
2023-03-05T09:38:39.645Z,0.56
2023-03-05T09:41:25.542Z,0.21
2023-03-05T09:44:11.406Z,1.18
2023-03-05T09:46:57.389Z,-0.20
2023-03-05T09:49:43.197Z,0.16
2023-03-05T09:52:28.981Z,-0.42
2023-03-05T09:55:14.899Z,-0.02
2023-03-05T09:58:00.954Z,0.61
2023-03-05T10:00:46.847Z,0.97
2023-03-05T10:03:32.716Z,1.55
2023-03-05T10:06:18.541Z,1.42
2023-03-05T10:09:04.419Z,1.15
2023-03-05T10:11:50.401Z,0.50
2023-03-05T10:14:36.266Z,0.86
2023-03-05T10:17:22.260Z,1.15
2023-03-05T10:20:08.237Z,0.12
2023-03-05T10:22:54.007Z,0.94
2023-03-05T10:25:40.984Z,1.34
2023-03-05T10:28:26.980Z,1.23
2023-03-05T10:31:12.821Z,1.79
2023-03-05T10:33:58.823Z,1.21
2023-03-05T10:36:44.718Z,1.13
2023-03-05T10:39:30.579Z,0.96
2023-03-05T10:42:16.515Z,1.39
2023-03-05T10:45:02.362Z,1.44
2023-03-05T10:47:48.388Z,1.48
2023-03-05T10:50:34.281Z,1.14
2023-03-05T10:53:20.244Z,1.64
2023-03-05T10:56:06.058Z,1.52
2023-03-05T10:58:52.023Z,2.43
2023-03-05T11:01:37.957Z,2.34
2023-03-05T11:04:24.079Z,1.86
2023-03-05T11:07:09.942Z,1.20
2023-03-05T11:09:55.874Z,1.99
2023-03-05T11:12:41.609Z,0.90
2023-03-05T11:15:27.486Z,1.26
2023-03-05T11:18:13.288Z,1.28
2023-03-05T11:20:58.967Z,1.07
2023-03-05T11:23:44.828Z,1.02
2023-03-05T11:26:30.735Z,1.28
2023-03-05T11:29:16.697Z,1.75
2023-03-05T11:32:02.790Z,2.21
2023-03-05T11:34:48.681Z,2.12
2023-03-05T11:37:34.594Z,2.91
2023-03-05T11:40:20.590Z,2.66
2023-03-05T11:43:06.585Z,2.44
2023-03-05T11:45:54.642Z,2.10
2023-03-05T11:48:40.979Z,2.37
2023-03-05T11:51:26.777Z,3.05
2023-03-05T11:54:12.638Z,2.82
2023-03-05T11:56:58.542Z,2.97
2023-03-05T11:59:44.504Z,3.17
2023-03-05T12:02:30.478Z,3.54
2023-03-05T12:05:16.405Z,3.77
2023-03-05T12:08:02.390Z,3.84
2023-03-05T12:10:48.440Z,4.03
2023-03-05T12:13:34.309Z,3.49
2023-03-05T12:16:20.333Z,4.21
2023-03-05T12:19:06.244Z,4.24
2023-03-05T12:21:52.200Z,3.54
2023-03-05T12:24:38.168Z,3.71
2023-03-05T12:27:23.992Z,3.75
2023-03-05T12:30:10.077Z,3.82
2023-03-05T12:32:56.063Z,4.35
2023-03-05T12:35:41.911Z,4.60
2023-03-05T12:38:27.919Z,5.16
2023-03-05T12:41:13.813Z,4.43
2023-03-05T12:43:59.728Z,5.21
2023-03-05T12:46:45.801Z,5.70
2023-03-05T12:49:31.587Z,5.97
2023-03-05T12:52:17.599Z,4.67
2023-03-05T12:55:03.528Z,4.78
2023-03-05T12:57:49.442Z,5.66
2023-03-05T13:00:35.392Z,5.81
2023-03-05T13:03:21.356Z,5.59
2023-03-05T13:06:07.310Z,5.37
2023-03-05T13:08:53.333Z,5.37
2023-03-05T13:11:39.277Z,5.22
2023-03-05T13:14:25.302Z,5.84
2023-03-05T13:17:11.198Z,5.63
2023-03-05T13:19:57.089Z,6.18
2023-03-05T13:22:43.093Z,6.29
2023-03-05T13:25:28.992Z,6.42
2023-03-05T13:28:14.957Z,5.85
2023-03-05T13:31:00.965Z,6.40
2023-03-05T13:33:46.799Z,5.91
2023-03-05T13:36:32.888Z,7.28
2023-03-05T13:39:19.058Z,5.44
2023-03-05T13:42:05.011Z,6.76
2023-03-05T13:44:50.807Z,6.76
2023-03-05T13:47:36.683Z,6.08
2023-03-05T13:50:22.530Z,6.93
2023-03-05T13:53:08.513Z,6.21
2023-03-05T13:55:54.443Z,6.16
2023-03-05T13:58:41.336Z,6.69
2023-03-05T14:01:27.116Z,8.12
2023-03-05T14:04:13.095Z,9.02
2023-03-05T14:06:59.028Z,9.60
2023-03-05T14:09:44.842Z,7.64
2023-03-05T14:12:30.671Z,6.77
2023-03-05T14:15:16.867Z,6.73
2023-03-05T14:18:02.952Z,7.01
2023-03-05T14:20:48.899Z,6.49
2023-03-05T14:23:34.779Z,6.68
2023-03-05T14:26:20.712Z,6.95
2023-03-05T14:29:06.733Z,7.97
2023-03-05T14:31:52.478Z,7.61
2023-03-05T14:34:38.433Z,6.66
2023-03-05T14:37:24.372Z,7.21
2023-03-05T14:40:10.282Z,7.14
2023-03-05T14:42:56.374Z,7.17
2023-03-05T14:45:42.247Z,6.91
2023-03-05T14:48:28.286Z,6.88
2023-03-05T14:51:14.262Z,6.83
2023-03-05T14:54:00.048Z,6.70
2023-03-05T14:56:46.116Z,6.80
2023-03-05T14:59:32.056Z,6.34
2023-03-05T15:02:18.049Z,6.97
2023-03-05T15:05:04.038Z,6.94
2023-03-05T15:07:50.012Z,6.64
2023-03-05T15:10:36.257Z,7.72
2023-03-05T15:13:22.231Z,8.08
2023-03-05T15:16:08.177Z,7.84
2023-03-05T15:18:54.181Z,8.32
2023-03-05T15:21:40.180Z,7.29
2023-03-05T15:24:26.133Z,7.26
2023-03-05T15:27:12.020Z,7.66
2023-03-05T15:29:57.814Z,7.66
2023-03-05T15:32:43.740Z,7.86
2023-03-05T15:35:29.763Z,6.80
2023-03-05T15:38:15.681Z,7.30
2023-03-05T15:41:01.923Z,7.16
2023-03-05T15:43:48.011Z,6.92
2023-03-05T15:46:33.927Z,6.85
2023-03-05T15:49:19.883Z,6.98
2023-03-05T15:52:05.746Z,7.06
2023-03-05T15:54:51.674Z,7.58
2023-03-05T15:57:37.612Z,7.36
2023-03-05T16:00:24.874Z,7.61
2023-03-05T16:03:11.607Z,7.28
2023-03-05T16:05:57.729Z,7.05
2023-03-05T16:08:43.703Z,7.11
2023-03-05T16:11:29.607Z,7.28
2023-03-05T16:14:15.582Z,7.04
2023-03-05T16:17:01.496Z,6.50
2023-03-05T16:19:47.442Z,6.45
2023-03-05T16:22:33.334Z,6.36
2023-03-05T16:25:19.370Z,6.25
2023-03-05T16:28:05.285Z,6.25
2023-03-05T16:30:51.121Z,5.99
2023-03-05T16:33:37.154Z,6.11
2023-03-05T16:36:23.024Z,6.00
2023-03-05T16:39:09.389Z,5.94
2023-03-05T16:41:55.174Z,5.58
2023-03-05T16:44:41.111Z,5.82
2023-03-05T16:47:27.135Z,5.79
2023-03-05T16:50:13.135Z,5.68
2023-03-05T16:52:59.107Z,5.69
2023-03-05T16:55:45.119Z,5.73
2023-03-05T16:58:31.021Z,5.55
2023-03-05T17:01:17.030Z,5.35
2023-03-05T17:04:03.160Z,4.88
2023-03-05T17:06:49.285Z,4.51
2023-03-05T17:09:35.152Z,4.05
2023-03-05T17:12:21.277Z,3.59
2023-03-05T17:15:07.053Z,3.23
2023-03-05T17:17:52.946Z,3.11
2023-03-05T17:20:38.827Z,3.00
2023-03-05T17:23:24.696Z,2.86
2023-03-05T17:26:10.542Z,2.36
2023-03-05T17:28:56.293Z,2.35
2023-03-05T17:31:42.386Z,2.35
2023-03-05T17:34:35.823Z,2.37
2023-03-05T17:37:22.335Z,1.86
2023-03-05T17:40:08.328Z,1.93
2023-03-05T17:42:54.257Z,1.95
2023-03-05T17:45:40.162Z,2.09
2023-03-05T17:48:26.048Z,2.25
2023-03-05T17:51:12.004Z,2.28
2023-03-05T17:53:57.955Z,2.26
2023-03-05T17:56:43.908Z,1.80
2023-03-05T17:59:29.857Z,1.67
2023-03-05T18:02:15.694Z,1.54
2023-03-05T18:05:03.850Z,1.56
2023-03-05T18:07:50.257Z,1.46
2023-03-05T18:10:38.390Z,1.47
2023-03-05T18:13:25.277Z,1.63
2023-03-05T18:16:11.532Z,1.60
2023-03-05T18:18:57.709Z,1.52
2023-03-05T18:21:43.663Z,1.55
2023-03-05T18:24:29.733Z,1.54
2023-03-05T18:27:15.676Z,1.39
2023-03-05T18:30:02.348Z,1.29
2023-03-05T18:32:48.766Z,1.31
2023-03-05T18:35:34.730Z,1.12
2023-03-05T18:38:20.751Z,0.97
2023-03-05T18:41:06.646Z,0.99
2023-03-05T18:43:52.464Z,0.95
2023-03-05T18:46:38.442Z,0.97
2023-03-05T18:49:24.393Z,0.83
2023-03-05T18:52:10.273Z,0.78
2023-03-05T18:54:57.256Z,0.67
2023-03-05T18:57:43.201Z,0.77
2023-03-05T19:00:29.517Z,0.88
2023-03-05T19:03:15.510Z,0.87
2023-03-05T19:06:01.456Z,0.67
2023-03-05T19:08:47.425Z,0.56
2023-03-05T19:11:33.355Z,0.55
2023-03-05T19:14:19.349Z,0.63
2023-03-05T19:17:05.349Z,0.68
2023-03-05T19:19:51.302Z,0.68
2023-03-05T19:22:37.237Z,0.70
2023-03-05T19:25:23.158Z,0.63
2023-03-05T19:28:09.240Z,0.67
2023-03-05T19:30:55.539Z,0.64
2023-03-05T19:33:41.363Z,0.63
2023-03-05T19:36:27.312Z,0.63
2023-03-05T19:39:13.291Z,0.61
2023-03-05T19:42:01.104Z,0.66
2023-03-05T19:44:47.038Z,0.71
2023-03-05T19:47:32.922Z,0.62
2023-03-05T19:50:19.259Z,0.56
2023-03-05T19:53:05.735Z,0.46
2023-03-05T19:55:51.634Z,0.32
2023-03-05T19:58:37.523Z,0.32
2023-03-05T20:01:23.531Z,0.36
2023-03-05T20:04:09.322Z,0.28
2023-03-05T20:06:55.281Z,0.20
2023-03-05T20:09:41.374Z,0.22
2023-03-05T20:12:27.191Z,0.16
2023-03-05T20:15:13.190Z,0.03
2023-03-05T20:17:59.142Z,0.11
2023-03-05T20:20:45.081Z,0.09
2023-03-05T20:23:31.093Z,0.23
2023-03-05T20:26:16.924Z,0.24
2023-03-05T20:29:02.911Z,0.24
2023-03-05T20:31:48.863Z,0.20
2023-03-05T20:34:34.694Z,-0.01
2023-03-05T20:37:20.581Z,-0.03
2023-03-05T20:40:06.520Z,-0.10
2023-03-05T20:42:52.410Z,-0.11
2023-03-05T20:45:38.303Z,-0.11
2023-03-05T20:48:24.304Z,-0.23
2023-03-05T20:51:10.272Z,-0.10
2023-03-05T20:53:56.236Z,0.05
2023-03-05T20:56:42.158Z,-0.11
2023-03-05T20:59:28.041Z,-0.05
2023-03-05T21:02:13.931Z,0.11
2023-03-05T21:04:59.901Z,0.14
2023-03-05T21:07:46.022Z,0.13
2023-03-05T21:10:31.861Z,-0.18
2023-03-05T21:13:17.879Z,-0.30
2023-03-05T21:16:03.730Z,-0.16
2023-03-05T21:18:49.645Z,-0.15
2023-03-05T21:21:35.533Z,-0.08
2023-03-05T21:24:21.358Z,-0.23
2023-03-05T21:27:07.217Z,-0.39
2023-03-05T21:29:53.177Z,-0.27
2023-03-05T21:32:39.128Z,-0.27
2023-03-05T21:35:25.278Z,-0.39
2023-03-05T21:38:11.545Z,-0.51
2023-03-05T21:40:57.372Z,-0.52
2023-03-05T21:43:43.522Z,-0.57
2023-03-05T21:46:29.505Z,-0.63
2023-03-05T21:49:15.561Z,-0.39
2023-03-05T21:52:01.643Z,-0.36
2023-03-05T21:54:47.470Z,-0.38
2023-03-05T21:57:34.500Z,-0.50
2023-03-05T22:00:20.684Z,-0.48
2023-03-05T22:03:06.553Z,-0.20
2023-03-05T22:05:52.519Z,-0.13
2023-03-05T22:08:38.226Z,-0.17
2023-03-05T22:11:24.071Z,-0.07
2023-03-05T22:14:10.067Z,0.08
2023-03-05T22:16:57.889Z,0.23
2023-03-05T22:19:43.888Z,0.39
2023-03-05T22:22:29.873Z,0.32
2023-03-05T22:27:05.985Z,0.32
2023-03-05T22:29:51.885Z,0.20
2023-03-05T22:32:37.894Z,0.11
2023-03-05T22:35:24.220Z,-0.01
2023-03-05T22:38:10.088Z,-0.29
2023-03-05T22:40:56.153Z,-0.18
2023-03-05T22:43:42.314Z,-0.02
2023-03-05T22:46:28.176Z,0.32
2023-03-05T22:49:14.135Z,0.44
2023-03-05T22:51:59.996Z,0.42
2023-03-05T22:54:45.937Z,1.28
2023-03-05T22:57:31.885Z,1.08
2023-03-05T23:00:17.840Z,1.91
2023-03-05T23:03:03.830Z,1.54
2023-03-05T23:05:49.841Z,1.51
2023-03-05T23:08:35.654Z,2.03
2023-03-05T23:11:23.559Z,1.60
2023-03-05T23:14:12.561Z,2.03
2023-03-05T23:16:58.325Z,2.47
2023-03-05T23:19:44.410Z,2.31
2023-03-05T23:22:30.383Z,1.39
2023-03-05T23:25:16.135Z,1.12
2023-03-05T23:28:02.060Z,0.23
2023-03-05T23:30:48.008Z,0.13
2023-03-05T23:33:34.040Z,0.19
2023-03-05T23:36:20.029Z,0.29
2023-03-05T23:39:05.859Z,-0.11
2023-03-05T23:41:51.830Z,0.14
2023-03-05T23:44:37.721Z,0.39
2023-03-05T23:47:23.534Z,0.28
2023-03-05T23:50:09.428Z,0.46
2023-03-05T23:52:55.223Z,-0.27
2023-03-05T23:55:41.144Z,-0.66
2023-03-05T23:58:26.983Z,-0.23
